sensor_id;sensor_type;location;lat;lon;timestamp;P1;durP1;ratioP1;P2;durP2;ratioP2
20511;SDS011;10414;52.074;5.126;2023-10-08T00:02:08;29.15;;;6.63;;
20511;SDS011;10414;52.074;5.126;2023-10-08T00:04:48;27.48;;;5.43;;
20511;SDS011;10414;52.074;5.126;2023-10-08T00:07:17;19.05;;;6.03;;
20511;SDS011;10414;52.074;5.126;2023-10-08T00:09:46;23.33;;;6.30;;
20511;SDS011;10414;52.074;5.126;2023-10-08T00:12:18;21.50;;;5.25;;
20511;SDS011;10414;52.074;5.126;2023-10-08T00:14:47;24.83;;;5.57;;
20511;SDS011;10414;52.074;5.126;2023-10-08T00:17:17;28.85;;;5.65;;
20511;SDS011;10414;52.074;5.126;2023-10-08T00:19:44;24.58;;;5.53;;
20511;SDS011;10414;52.074;5.126;2023-10-08T00:22:18;20.92;;;5.55;;
20511;SDS011;10414;52.074;5.126;2023-10-08T00:24:45;22.13;;;5.43;;
20511;SDS011;10414;52.074;5.126;2023-10-08T00:27:22;28.75;;;5.88;;
20511;SDS011;10414;52.074;5.126;2023-10-08T00:29:52;19.05;;;5.40;;
20511;SDS011;10414;52.074;5.126;2023-10-08T00:32:21;27.13;;;6.18;;
20511;SDS011;10414;52.074;5.126;2023-10-08T00:34:48;23.50;;;5.78;;
20511;SDS011;10414;52.074;5.126;2023-10-08T00:37:23;21.73;;;5.50;;
20511;SDS011;10414;52.074;5.126;2023-10-08T00:39:52;15.23;;;5.20;;
20511;SDS011;10414;52.074;5.126;2023-10-08T00:42:22;21.98;;;5.47;;
20511;SDS011;10414;52.074;5.126;2023-10-08T00:44:55;21.10;;;5.15;;
20511;SDS011;10414;52.074;5.126;2023-10-08T00:47:22;20.52;;;6.28;;
20511;SDS011;10414;52.074;5.126;2023-10-08T00:49:53;22.88;;;5.60;;
20511;SDS011;10414;52.074;5.126;2023-10-08T00:52:37;19.27;;;6.27;;
20511;SDS011;10414;52.074;5.126;2023-10-08T00:55:19;19.85;;;5.53;;
20511;SDS011;10414;52.074;5.126;2023-10-08T00:57:56;22.55;;;6.20;;
20511;SDS011;10414;52.074;5.126;2023-10-08T01:00:32;19.13;;;5.65;;
20511;SDS011;10414;52.074;5.126;2023-10-08T01:03:06;25.05;;;5.68;;
20511;SDS011;10414;52.074;5.126;2023-10-08T01:05:39;20.80;;;5.63;;
20511;SDS011;10414;52.074;5.126;2023-10-08T01:08:13;24.17;;;5.72;;
20511;SDS011;10414;52.074;5.126;2023-10-08T01:10:48;16.73;;;5.00;;
20511;SDS011;10414;52.074;5.126;2023-10-08T01:13:25;18.08;;;5.60;;
20511;SDS011;10414;52.074;5.126;2023-10-08T01:16:00;19.08;;;5.13;;
20511;SDS011;10414;52.074;5.126;2023-10-08T01:18:27;18.45;;;5.68;;
20511;SDS011;10414;52.074;5.126;2023-10-08T01:21:03;31.67;;;6.00;;
20511;SDS011;10414;52.074;5.126;2023-10-08T01:23:37;23.58;;;5.75;;
20511;SDS011;10414;52.074;5.126;2023-10-08T01:26:08;20.10;;;5.55;;
20511;SDS011;10414;52.074;5.126;2023-10-08T01:28:36;19.98;;;5.65;;
20511;SDS011;10414;52.074;5.126;2023-10-08T01:31:03;17.00;;;5.50;;
20511;SDS011;10414;52.074;5.126;2023-10-08T01:33:31;32.63;;;6.72;;
20511;SDS011;10414;52.074;5.126;2023-10-08T01:36:04;27.90;;;6.55;;
20511;SDS011;10414;52.074;5.126;2023-10-08T01:38:39;23.15;;;6.40;;
20511;SDS011;10414;52.074;5.126;2023-10-08T01:41:06;22.45;;;6.03;;
20511;SDS011;10414;52.074;5.126;2023-10-08T01:43:46;23.45;;;6.10;;
20511;SDS011;10414;52.074;5.126;2023-10-08T01:46:13;28.50;;;6.47;;
20511;SDS011;10414;52.074;5.126;2023-10-08T01:48:41;22.30;;;5.75;;
20511;SDS011;10414;52.074;5.126;2023-10-08T01:51:10;20.05;;;6.10;;
20511;SDS011;10414;52.074;5.126;2023-10-08T01:53:45;18.52;;;6.18;;
20511;SDS011;10414;52.074;5.126;2023-10-08T01:56:16;23.33;;;5.90;;
20511;SDS011;10414;52.074;5.126;2023-10-08T01:58:43;25.17;;;6.63;;
20511;SDS011;10414;52.074;5.126;2023-10-08T02:01:11;20.60;;;5.90;;
20511;SDS011;10414;52.074;5.126;2023-10-08T02:03:39;21.52;;;6.95;;
20511;SDS011;10414;52.074;5.126;2023-10-08T02:06:06;18.40;;;5.95;;
20511;SDS011;10414;52.074;5.126;2023-10-08T02:08:33;23.73;;;6.65;;
20511;SDS011;10414;52.074;5.126;2023-10-08T02:11:03;20.33;;;6.50;;
20511;SDS011;10414;52.074;5.126;2023-10-08T02:13:33;21.85;;;6.47;;
20511;SDS011;10414;52.074;5.126;2023-10-08T02:16:03;22.20;;;7.22;;
20511;SDS011;10414;52.074;5.126;2023-10-08T02:18:30;20.52;;;6.40;;
20511;SDS011;10414;52.074;5.126;2023-10-08T02:20:58;21.98;;;6.63;;
20511;SDS011;10414;52.074;5.126;2023-10-08T02:23:26;23.83;;;6.45;;
20511;SDS011;10414;52.074;5.126;2023-10-08T02:25:56;21.48;;;6.15;;
20511;SDS011;10414;52.074;5.126;2023-10-08T02:28:35;21.88;;;5.97;;
20511;SDS011;10414;52.074;5.126;2023-10-08T02:31:03;21.25;;;6.90;;
20511;SDS011;10414;52.074;5.126;2023-10-08T02:33:30;22.77;;;6.20;;
20511;SDS011;10414;52.074;5.126;2023-10-08T02:35:58;25.05;;;5.93;;
20511;SDS011;10414;52.074;5.126;2023-10-08T02:38:26;22.35;;;6.22;;
20511;SDS011;10414;52.074;5.126;2023-10-08T02:40:53;21.55;;;6.32;;
20511;SDS011;10414;52.074;5.126;2023-10-08T02:43:24;17.20;;;6.28;;
20511;SDS011;10414;52.074;5.126;2023-10-08T02:45:56;19.80;;;6.28;;
20511;SDS011;10414;52.074;5.126;2023-10-08T02:48:25;20.88;;;6.30;;
20511;SDS011;10414;52.074;5.126;2023-10-08T02:50:53;24.45;;;6.80;;
20511;SDS011;10414;52.074;5.126;2023-10-08T02:53:32;20.45;;;6.13;;
20511;SDS011;10414;52.074;5.126;2023-10-08T02:55:59;22.58;;;6.70;;
20511;SDS011;10414;52.074;5.126;2023-10-08T02:58:25;21.75;;;5.68;;
20511;SDS011;10414;52.074;5.126;2023-10-08T03:00:58;26.52;;;6.88;;
20511;SDS011;10414;52.074;5.126;2023-10-08T03:03:25;19.03;;;6.43;;
20511;SDS011;10414;52.074;5.126;2023-10-08T03:05:53;25.23;;;6.78;;
20511;SDS011;10414;52.074;5.126;2023-10-08T03:08:21;22.67;;;6.72;;
20511;SDS011;10414;52.074;5.126;2023-10-08T03:10:56;27.92;;;6.22;;
20511;SDS011;10414;52.074;5.126;2023-10-08T03:13:29;23.27;;;7.28;;
20511;SDS011;10414;52.074;5.126;2023-10-08T03:15:58;22.88;;;6.05;;
20511;SDS011;10414;52.074;5.126;2023-10-08T03:18:34;26.15;;;6.97;;
20511;SDS011;10414;52.074;5.126;2023-10-08T03:21:04;27.85;;;6.70;;
20511;SDS011;10414;52.074;5.126;2023-10-08T03:23:45;22.00;;;6.55;;
20511;SDS011;10414;52.074;5.126;2023-10-08T03:26:13;23.70;;;6.35;;
20511;SDS011;10414;52.074;5.126;2023-10-08T03:28:59;20.48;;;6.70;;
20511;SDS011;10414;52.074;5.126;2023-10-08T03:31:32;19.25;;;6.45;;
20511;SDS011;10414;52.074;5.126;2023-10-08T03:34:15;20.73;;;6.25;;
20511;SDS011;10414;52.074;5.126;2023-10-08T03:36:44;27.88;;;7.60;;
20511;SDS011;10414;52.074;5.126;2023-10-08T03:39:12;23.15;;;6.50;;
20511;SDS011;10414;52.074;5.126;2023-10-08T03:41:41;20.85;;;6.72;;
20511;SDS011;10414;52.074;5.126;2023-10-08T03:44:17;23.52;;;7.05;;
20511;SDS011;10414;52.074;5.126;2023-10-08T03:46:48;19.20;;;6.80;;
20511;SDS011;10414;52.074;5.126;2023-10-08T03:49:17;21.00;;;6.60;;
20511;SDS011;10414;52.074;5.126;2023-10-08T03:51:52;22.45;;;6.80;;
20511;SDS011;10414;52.074;5.126;2023-10-08T03:54:22;24.27;;;7.15;;
20511;SDS011;10414;52.074;5.126;2023-10-08T03:56:59;21.80;;;7.45;;
20511;SDS011;10414;52.074;5.126;2023-10-08T03:59:26;28.83;;;7.35;;
20511;SDS011;10414;52.074;5.126;2023-10-08T04:01:58;21.60;;;7.78;;
20511;SDS011;10414;52.074;5.126;2023-10-08T04:04:35;28.05;;;8.25;;
20511;SDS011;10414;52.074;5.126;2023-10-08T04:07:16;28.52;;;8.80;;
20511;SDS011;10414;52.074;5.126;2023-10-08T04:10:05;30.75;;;8.27;;
20511;SDS011;10414;52.074;5.126;2023-10-08T04:13:03;28.45;;;8.80;;
20511;SDS011;10414;52.074;5.126;2023-10-08T04:15:36;35.75;;;8.65;;
20511;SDS011;10414;52.074;5.126;2023-10-08T04:18:07;32.88;;;9.30;;
20511;SDS011;10414;52.074;5.126;2023-10-08T04:20:34;31.73;;;10.60;;
20511;SDS011;10414;52.074;5.126;2023-10-08T04:23:04;27.58;;;9.27;;
20511;SDS011;10414;52.074;5.126;2023-10-08T04:25:38;31.85;;;9.18;;
20511;SDS011;10414;52.074;5.126;2023-10-08T04:28:10;29.75;;;9.23;;
20511;SDS011;10414;52.074;5.126;2023-10-08T04:30:42;27.33;;;9.98;;
20511;SDS011;10414;52.074;5.126;2023-10-08T04:33:14;27.05;;;9.25;;
20511;SDS011;10414;52.074;5.126;2023-10-08T04:35:41;27.42;;;8.80;;
20511;SDS011;10414;52.074;5.126;2023-10-08T04:38:13;28.00;;;9.13;;
20511;SDS011;10414;52.074;5.126;2023-10-08T04:40:43;22.05;;;8.85;;
20511;SDS011;10414;52.074;5.126;2023-10-08T04:43:15;31.13;;;9.68;;
20511;SDS011;10414;52.074;5.126;2023-10-08T04:45:48;25.48;;;8.38;;
20511;SDS011;10414;52.074;5.126;2023-10-08T04:48:16;26.15;;;8.45;;
20511;SDS011;10414;52.074;5.126;2023-10-08T04:50:45;27.00;;;9.30;;
20511;SDS011;10414;52.074;5.126;2023-10-08T04:53:23;28.63;;;9.63;;
20511;SDS011;10414;52.074;5.126;2023-10-08T04:55:56;24.48;;;9.15;;
20511;SDS011;10414;52.074;5.126;2023-10-08T04:58:27;25.77;;;8.98;;
20511;SDS011;10414;52.074;5.126;2023-10-08T05:00:58;32.72;;;10.02;;
20511;SDS011;10414;52.074;5.126;2023-10-08T05:03:43;27.13;;;10.50;;
20511;SDS011;10414;52.074;5.126;2023-10-08T05:06:32;30.55;;;9.23;;
20511;SDS011;10414;52.074;5.126;2023-10-08T05:09:26;32.97;;;10.00;;
20511;SDS011;10414;52.074;5.126;2023-10-08T05:14:55;33.83;;;8.88;;
20511;SDS011;10414;52.074;5.126;2023-10-08T05:17:41;34.83;;;9.25;;
20511;SDS011;10414;52.074;5.126;2023-10-08T05:23:10;29.55;;;9.13;;
20511;SDS011;10414;52.074;5.126;2023-10-08T05:26:07;32.20;;;7.70;;
20511;SDS011;10414;52.074;5.126;2023-10-08T05:28:51;22.80;;;7.57;;
20511;SDS011;10414;52.074;5.126;2023-10-08T05:31:47;21.95;;;7.32;;
20511;SDS011;10414;52.074;5.126;2023-10-08T05:34:18;22.67;;;7.70;;
20511;SDS011;10414;52.074;5.126;2023-10-08T05:36:59;26.00;;;6.75;;
20511;SDS011;10414;52.074;5.126;2023-10-08T05:39:45;29.65;;;6.97;;
20511;SDS011;10414;52.074;5.126;2023-10-08T05:42:21;28.88;;;6.95;;
20511;SDS011;10414;52.074;5.126;2023-10-08T05:44:57;27.52;;;5.63;;
20511;SDS011;10414;52.074;5.126;2023-10-08T05:47:39;20.02;;;5.00;;
20511;SDS011;10414;52.074;5.126;2023-10-08T05:50:16;20.60;;;5.38;;
20511;SDS011;10414;52.074;5.126;2023-10-08T05:53:05;15.63;;;4.22;;
20511;SDS011;10414;52.074;5.126;2023-10-08T05:55:44;15.02;;;3.65;;
20511;SDS011;10414;52.074;5.126;2023-10-08T05:58:26;17.08;;;4.20;;
20511;SDS011;10414;52.074;5.126;2023-10-08T06:01:00;12.02;;;4.03;;
20511;SDS011;10414;52.074;5.126;2023-10-08T06:03:33;12.73;;;4.22;;
20511;SDS011;10414;52.074;5.126;2023-10-08T06:06:12;14.15;;;3.90;;
20511;SDS011;10414;52.074;5.126;2023-10-08T06:09:02;14.93;;;4.20;;
20511;SDS011;10414;52.074;5.126;2023-10-08T06:11:47;18.33;;;4.72;;
20511;SDS011;10414;52.074;5.126;2023-10-08T06:14:31;13.25;;;4.68;;
20511;SDS011;10414;52.074;5.126;2023-10-08T06:17:17;12.75;;;4.05;;
20511;SDS011;10414;52.074;5.126;2023-10-08T06:19:59;16.10;;;4.82;;
20511;SDS011;10414;52.074;5.126;2023-10-08T06:22:34;14.00;;;5.10;;
20511;SDS011;10414;52.074;5.126;2023-10-08T06:25:08;20.25;;;4.90;;
20511;SDS011;10414;52.074;5.126;2023-10-08T06:27:48;19.48;;;5.13;;
20511;SDS011;10414;52.074;5.126;2023-10-08T06:30:19;16.88;;;4.95;;
20511;SDS011;10414;52.074;5.126;2023-10-08T06:32:46;15.82;;;4.53;;
20511;SDS011;10414;52.074;5.126;2023-10-08T06:35:15;18.45;;;4.60;;
20511;SDS011;10414;52.074;5.126;2023-10-08T06:37:44;23.33;;;4.80;;
20511;SDS011;10414;52.074;5.126;2023-10-08T06:42:56;16.70;;;4.18;;
20511;SDS011;10414;52.074;5.126;2023-10-08T06:45:28;19.95;;;5.43;;
20511;SDS011;10414;52.074;5.126;2023-10-08T06:47:58;14.05;;;3.70;;
20511;SDS011;10414;52.074;5.126;2023-10-08T06:50:31;19.88;;;4.22;;
20511;SDS011;10414;52.074;5.126;2023-10-08T06:52:59;17.75;;;4.00;;
20511;SDS011;10414;52.074;5.126;2023-10-08T06:55:32;19.05;;;3.45;;
20511;SDS011;10414;52.074;5.126;2023-10-08T06:58:00;9.95;;;2.92;;
20511;SDS011;10414;52.074;5.126;2023-10-08T07:00:30;11.25;;;2.88;;
20511;SDS011;10414;52.074;5.126;2023-10-08T07:03:05;7.72;;;2.05;;
20511;SDS011;10414;52.074;5.126;2023-10-08T07:05:33;12.00;;;2.22;;
20511;SDS011;10414;52.074;5.126;2023-10-08T07:08:06;14.00;;;2.45;;
20511;SDS011;10414;52.074;5.126;2023-10-08T07:10:36;12.55;;;2.47;;
20511;SDS011;10414;52.074;5.126;2023-10-08T07:13:03;12.15;;;2.05;;
20511;SDS011;10414;52.074;5.126;2023-10-08T07:15:33;8.57;;;2.15;;
20511;SDS011;10414;52.074;5.126;2023-10-08T07:18:06;10.88;;;2.33;;
20511;SDS011;10414;52.074;5.126;2023-10-08T07:20:38;12.63;;;2.70;;
20511;SDS011;10414;52.074;5.126;2023-10-08T07:23:07;11.45;;;2.28;;
20511;SDS011;10414;52.074;5.126;2023-10-08T07:25:45;8.63;;;2.08;;
20511;SDS011;10414;52.074;5.126;2023-10-08T07:28:17;9.38;;;1.83;;
20511;SDS011;10414;52.074;5.126;2023-10-08T07:30:44;13.70;;;1.90;;
20511;SDS011;10414;52.074;5.126;2023-10-08T07:33:13;6.97;;;1.70;;
20511;SDS011;10414;52.074;5.126;2023-10-08T07:35:44;9.38;;;2.15;;
20511;SDS011;10414;52.074;5.126;2023-10-08T07:38:28;12.18;;;2.80;;
20511;SDS011;10414;52.074;5.126;2023-10-08T07:40:57;8.70;;;1.58;;
20511;SDS011;10414;52.074;5.126;2023-10-08T07:45:57;10.98;;;1.55;;
20511;SDS011;10414;52.074;5.126;2023-10-08T07:48:25;10.48;;;2.17;;
20511;SDS011;10414;52.074;5.126;2023-10-08T07:50:55;7.23;;;1.93;;
20511;SDS011;10414;52.074;5.126;2023-10-08T07:53:25;10.15;;;2.03;;
20511;SDS011;10414;52.074;5.126;2023-10-08T07:56:03;10.23;;;2.30;;
20511;SDS011;10414;52.074;5.126;2023-10-08T07:58:33;11.95;;;5.30;;
20511;SDS011;10414;52.074;5.126;2023-10-08T08:01:02;8.13;;;3.70;;
20511;SDS011;10414;52.074;5.126;2023-10-08T08:03:31;8.85;;;3.67;;
20511;SDS011;10414;52.074;5.126;2023-10-08T08:06:01;8.38;;;3.20;;
20511;SDS011;10414;52.074;5.126;2023-10-08T08:08:31;12.32;;;3.97;;
20511;SDS011;10414;52.074;5.126;2023-10-08T08:10:59;9.30;;;2.88;;
20511;SDS011;10414;52.074;5.126;2023-10-08T08:13:32;8.82;;;3.13;;
20511;SDS011;10414;52.074;5.126;2023-10-08T08:15:59;10.52;;;3.15;;
20511;SDS011;10414;52.074;5.126;2023-10-08T08:18:36;9.50;;;3.17;;
20511;SDS011;10414;52.074;5.126;2023-10-08T08:21:09;12.10;;;3.00;;
20511;SDS011;10414;52.074;5.126;2023-10-08T08:23:39;11.77;;;3.03;;
20511;SDS011;10414;52.074;5.126;2023-10-08T08:26:15;8.98;;;3.33;;
20511;SDS011;10414;52.074;5.126;2023-10-08T08:28:58;7.40;;;2.65;;
20511;SDS011;10414;52.074;5.126;2023-10-08T08:31:29;9.15;;;2.83;;
20511;SDS011;10414;52.074;5.126;2023-10-08T08:34:00;10.40;;;3.22;;
20511;SDS011;10414;52.074;5.126;2023-10-08T08:36:33;9.45;;;3.25;;
20511;SDS011;10414;52.074;5.126;2023-10-08T08:39:03;7.90;;;2.73;;
20511;SDS011;10414;52.074;5.126;2023-10-08T08:41:36;8.40;;;2.83;;
20511;SDS011;10414;52.074;5.126;2023-10-08T08:44:05;8.38;;;2.58;;
20511;SDS011;10414;52.074;5.126;2023-10-08T08:46:36;8.63;;;2.50;;
20511;SDS011;10414;52.074;5.126;2023-10-08T08:49:05;7.43;;;2.40;;
20511;SDS011;10414;52.074;5.126;2023-10-08T08:51:34;8.27;;;2.80;;
20511;SDS011;10414;52.074;5.126;2023-10-08T08:54:03;10.32;;;2.60;;
20511;SDS011;10414;52.074;5.126;2023-10-08T08:56:31;10.15;;;2.95;;
20511;SDS011;10414;52.074;5.126;2023-10-08T08:58:59;6.20;;;2.50;;
20511;SDS011;10414;52.074;5.126;2023-10-08T09:01:31;7.97;;;2.83;;
20511;SDS011;10414;52.074;5.126;2023-10-08T09:03:59;8.32;;;2.97;;
20511;SDS011;10414;52.074;5.126;2023-10-08T09:06:32;6.80;;;2.55;;
20511;SDS011;10414;52.074;5.126;2023-10-08T09:08:59;6.20;;;2.38;;
20511;SDS011;10414;52.074;5.126;2023-10-08T09:11:47;8.50;;;2.47;;
20511;SDS011;10414;52.074;5.126;2023-10-08T09:14:18;10.77;;;2.92;;
20511;SDS011;10414;52.074;5.126;2023-10-08T09:16:47;10.52;;;2.45;;
20511;SDS011;10414;52.074;5.126;2023-10-08T09:19:14;6.82;;;2.50;;
20511;SDS011;10414;52.074;5.126;2023-10-08T09:21:43;6.97;;;2.60;;
20511;SDS011;10414;52.074;5.126;2023-10-08T09:24:25;6.05;;;2.38;;
20511;SDS011;10414;52.074;5.126;2023-10-08T09:26:52;6.15;;;2.30;;
20511;SDS011;10414;52.074;5.126;2023-10-08T09:29:23;7.40;;;2.30;;
20511;SDS011;10414;52.074;5.126;2023-10-08T09:31:52;5.53;;;2.13;;
20511;SDS011;10414;52.074;5.126;2023-10-08T09:34:20;7.15;;;2.17;;
20511;SDS011;10414;52.074;5.126;2023-10-08T09:36:47;7.35;;;2.17;;
20511;SDS011;10414;52.074;5.126;2023-10-08T09:39:14;8.70;;;2.25;;
20511;SDS011;10414;52.074;5.126;2023-10-08T09:41:48;7.85;;;2.25;;
20511;SDS011;10414;52.074;5.126;2023-10-08T09:44:16;8.82;;;2.08;;
20511;SDS011;10414;52.074;5.126;2023-10-08T09:46:51;5.55;;;1.80;;
20511;SDS011;10414;52.074;5.126;2023-10-08T09:49:21;6.32;;;2.10;;
20511;SDS011;10414;52.074;5.126;2023-10-08T09:51:57;8.25;;;2.97;;
20511;SDS011;10414;52.074;5.126;2023-10-08T09:54:35;7.22;;;2.22;;
20511;SDS011;10414;52.074;5.126;2023-10-08T09:57:17;5.20;;;1.75;;
20511;SDS011;10414;52.074;5.126;2023-10-08T09:59:45;5.43;;;1.88;;
20511;SDS011;10414;52.074;5.126;2023-10-08T10:02:15;6.97;;;2.47;;
20511;SDS011;10414;52.074;5.126;2023-10-08T10:04:42;4.43;;;1.80;;
20511;SDS011;10414;52.074;5.126;2023-10-08T10:07:14;7.82;;;2.15;;
20511;SDS011;10414;52.074;5.126;2023-10-08T10:09:42;7.03;;;1.95;;
20511;SDS011;10414;52.074;5.126;2023-10-08T10:12:11;8.07;;;2.10;;
20511;SDS011;10414;52.074;5.126;2023-10-08T10:14:42;6.80;;;2.08;;
20511;SDS011;10414;52.074;5.126;2023-10-08T10:17:15;6.57;;;2.20;;
20511;SDS011;10414;52.074;5.126;2023-10-08T10:19:49;7.50;;;2.15;;
20511;SDS011;10414;52.074;5.126;2023-10-08T10:22:26;7.07;;;2.30;;
20511;SDS011;10414;52.074;5.126;2023-10-08T10:24:54;5.40;;;2.50;;
20511;SDS011;10414;52.074;5.126;2023-10-08T10:27:22;7.60;;;2.17;;
20511;SDS011;10414;52.074;5.126;2023-10-08T10:29:50;9.25;;;2.22;;
20511;SDS011;10414;52.074;5.126;2023-10-08T10:32:19;5.25;;;1.80;;
20511;SDS011;10414;52.074;5.126;2023-10-08T10:34:46;5.72;;;1.80;;
20511;SDS011;10414;52.074;5.126;2023-10-08T10:37:18;5.25;;;1.95;;
20511;SDS011;10414;52.074;5.126;2023-10-08T10:39:51;6.38;;;1.73;;
20511;SDS011;10414;52.074;5.126;2023-10-08T10:42:20;4.70;;;1.80;;
20511;SDS011;10414;52.074;5.126;2023-10-08T10:44:50;4.57;;;2.20;;
20511;SDS011;10414;52.074;5.126;2023-10-08T10:47:19;6.10;;;2.30;;
20511;SDS011;10414;52.074;5.126;2023-10-08T10:49:51;5.10;;;1.90;;
20511;SDS011;10414;52.074;5.126;2023-10-08T10:52:35;8.25;;;2.38;;
20511;SDS011;10414;52.074;5.126;2023-10-08T10:55:10;6.43;;;2.42;;
20511;SDS011;10414;52.074;5.126;2023-10-08T10:57:46;5.43;;;2.00;;
20511;SDS011;10414;52.074;5.126;2023-10-08T11:00:23;6.80;;;2.53;;
20511;SDS011;10414;52.074;5.126;2023-10-08T11:03:09;6.53;;;2.30;;
20511;SDS011;10414;52.074;5.126;2023-10-08T11:05:50;6.65;;;2.72;;
20511;SDS011;10414;52.074;5.126;2023-10-08T11:08:20;6.00;;;2.38;;
20511;SDS011;10414;52.074;5.126;2023-10-08T11:10:52;5.45;;;2.30;;
20511;SDS011;10414;52.074;5.126;2023-10-08T11:13:23;8.90;;;2.58;;
20511;SDS011;10414;52.074;5.126;2023-10-08T11:15:54;6.80;;;2.80;;
20511;SDS011;10414;52.074;5.126;2023-10-08T11:18:25;7.75;;;3.33;;
20511;SDS011;10414;52.074;5.126;2023-10-08T11:21:04;7.15;;;3.10;;
20511;SDS011;10414;52.074;5.126;2023-10-08T11:23:41;6.45;;;3.03;;
20511;SDS011;10414;52.074;5.126;2023-10-08T11:26:12;8.95;;;3.25;;
20511;SDS011;10414;52.074;5.126;2023-10-08T11:28:41;7.28;;;3.25;;
20511;SDS011;10414;52.074;5.126;2023-10-08T11:31:10;7.78;;;3.42;;
20511;SDS011;10414;52.074;5.126;2023-10-08T11:33:40;10.20;;;3.67;;
20511;SDS011;10414;52.074;5.126;2023-10-08T11:36:10;8.27;;;3.40;;
20511;SDS011;10414;52.074;5.126;2023-10-08T11:38:44;7.18;;;3.95;;
20511;SDS011;10414;52.074;5.126;2023-10-08T11:41:15;8.48;;;4.20;;
20511;SDS011;10414;52.074;5.126;2023-10-08T11:43:54;7.30;;;3.90;;
20511;SDS011;10414;52.074;5.126;2023-10-08T11:46:23;6.70;;;3.53;;
20511;SDS011;10414;52.074;5.126;2023-10-08T11:48:54;8.75;;;3.97;;
20511;SDS011;10414;52.074;5.126;2023-10-08T11:51:29;8.07;;;3.88;;
20511;SDS011;10414;52.074;5.126;2023-10-08T11:53:57;9.15;;;4.20;;
20511;SDS011;10414;52.074;5.126;2023-10-08T11:56:25;6.25;;;3.72;;
20511;SDS011;10414;52.074;5.126;2023-10-08T11:58:52;8.63;;;3.83;;
20511;SDS011;10414;52.074;5.126;2023-10-08T12:01:22;6.90;;;3.55;;
20511;SDS011;10414;52.074;5.126;2023-10-08T12:03:49;6.95;;;3.70;;
20511;SDS011;10414;52.074;5.126;2023-10-08T12:06:18;6.93;;;3.50;;
20511;SDS011;10414;52.074;5.126;2023-10-08T12:08:46;8.02;;;4.07;;
20511;SDS011;10414;52.074;5.126;2023-10-08T12:11:18;7.47;;;3.83;;
20511;SDS011;10414;52.074;5.126;2023-10-08T12:13:56;8.00;;;3.17;;
20511;SDS011;10414;52.074;5.126;2023-10-08T12:16:24;7.18;;;3.40;;
20511;SDS011;10414;52.074;5.126;2023-10-08T12:18:54;7.53;;;3.47;;
20511;SDS011;10414;52.074;5.126;2023-10-08T12:21:25;6.70;;;2.95;;
20511;SDS011;10414;52.074;5.126;2023-10-08T12:23:56;5.47;;;3.05;;
20511;SDS011;10414;52.074;5.126;2023-10-08T12:26:23;7.00;;;3.08;;
20511;SDS011;10414;52.074;5.126;2023-10-08T12:28:50;9.25;;;3.47;;
20511;SDS011;10414;52.074;5.126;2023-10-08T12:31:19;8.70;;;3.00;;
20511;SDS011;10414;52.074;5.126;2023-10-08T12:33:47;10.90;;;3.10;;
20511;SDS011;10414;52.074;5.126;2023-10-08T12:36:16;7.05;;;2.97;;
20511;SDS011;10414;52.074;5.126;2023-10-08T12:38:49;8.70;;;2.95;;
20511;SDS011;10414;52.074;5.126;2023-10-08T12:41:22;6.90;;;2.60;;
20511;SDS011;10414;52.074;5.126;2023-10-08T12:43:50;8.20;;;2.88;;
20511;SDS011;10414;52.074;5.126;2023-10-08T12:46:18;7.35;;;3.00;;
20511;SDS011;10414;52.074;5.126;2023-10-08T12:48:49;9.15;;;2.80;;
20511;SDS011;10414;52.074;5.126;2023-10-08T12:51:19;8.65;;;2.90;;
20511;SDS011;10414;52.074;5.126;2023-10-08T12:53:50;8.98;;;2.53;;
20511;SDS011;10414;52.074;5.126;2023-10-08T12:56:23;7.53;;;2.50;;
20511;SDS011;10414;52.074;5.126;2023-10-08T12:58:57;6.25;;;2.30;;
20511;SDS011;10414;52.074;5.126;2023-10-08T13:01:24;8.35;;;2.33;;
20511;SDS011;10414;52.074;5.126;2023-10-08T13:03:57;7.78;;;2.97;;
20511;SDS011;10414;52.074;5.126;2023-10-08T13:06:32;5.85;;;2.10;;
20511;SDS011;10414;52.074;5.126;2023-10-08T13:09:04;7.85;;;2.33;;
20511;SDS011;10414;52.074;5.126;2023-10-08T13:11:37;7.57;;;2.33;;
20511;SDS011;10414;52.074;5.126;2023-10-08T13:14:05;7.80;;;2.25;;
20511;SDS011;10414;52.074;5.126;2023-10-08T13:16:32;7.80;;;2.05;;
20511;SDS011;10414;52.074;5.126;2023-10-08T13:19:02;6.50;;;2.58;;
20511;SDS011;10414;52.074;5.126;2023-10-08T13:21:30;7.28;;;2.25;;
20511;SDS011;10414;52.074;5.126;2023-10-08T13:24:00;7.97;;;2.42;;
20511;SDS011;10414;52.074;5.126;2023-10-08T13:26:30;6.63;;;2.30;;
20511;SDS011;10414;52.074;5.126;2023-10-08T13:28:57;7.60;;;2.30;;
20511;SDS011;10414;52.074;5.126;2023-10-08T13:31:24;9.68;;;2.45;;
20511;SDS011;10414;52.074;5.126;2023-10-08T13:33:51;7.55;;;2.47;;
20511;SDS011;10414;52.074;5.126;2023-10-08T13:36:21;5.95;;;2.30;;
20511;SDS011;10414;52.074;5.126;2023-10-08T13:38:49;6.03;;;2.20;;
20511;SDS011;10414;52.074;5.126;2023-10-08T13:41:19;7.25;;;2.88;;
20511;SDS011;10414;52.074;5.126;2023-10-08T13:43:48;6.47;;;2.45;;
20511;SDS011;10414;52.074;5.126;2023-10-08T13:46:17;8.98;;;2.50;;
20511;SDS011;10414;52.074;5.126;2023-10-08T13:48:48;6.22;;;2.28;;
20511;SDS011;10414;52.074;5.126;2023-10-08T13:51:15;7.43;;;2.85;;
20511;SDS011;10414;52.074;5.126;2023-10-08T13:53:49;7.40;;;2.90;;
20511;SDS011;10414;52.074;5.126;2023-10-08T13:56:17;7.20;;;3.03;;
20511;SDS011;10414;52.074;5.126;2023-10-08T13:58:47;7.15;;;2.67;;
20511;SDS011;10414;52.074;5.126;2023-10-08T14:01:16;7.63;;;2.72;;
20511;SDS011;10414;52.074;5.126;2023-10-08T14:03:51;9.20;;;2.53;;
20511;SDS011;10414;52.074;5.126;2023-10-08T14:06:21;8.77;;;2.70;;
20511;SDS011;10414;52.074;5.126;2023-10-08T14:08:50;7.05;;;2.78;;
20511;SDS011;10414;52.074;5.126;2023-10-08T14:11:18;7.00;;;2.60;;
20511;SDS011;10414;52.074;5.126;2023-10-08T14:13:52;7.38;;;2.85;;
20511;SDS011;10414;52.074;5.126;2023-10-08T14:16:19;7.43;;;2.70;;
20511;SDS011;10414;52.074;5.126;2023-10-08T14:18:52;7.45;;;2.38;;
20511;SDS011;10414;52.074;5.126;2023-10-08T14:21:20;6.35;;;2.67;;
20511;SDS011;10414;52.074;5.126;2023-10-08T14:23:49;9.50;;;2.90;;
20511;SDS011;10414;52.074;5.126;2023-10-08T14:26:17;5.55;;;2.65;;
20511;SDS011;10414;52.074;5.126;2023-10-08T14:28:46;8.73;;;3.22;;
20511;SDS011;10414;52.074;5.126;2023-10-08T14:31:19;6.47;;;2.80;;
20511;SDS011;10414;52.074;5.126;2023-10-08T14:33:49;9.00;;;3.25;;
20511;SDS011;10414;52.074;5.126;2023-10-08T14:36:30;7.13;;;3.53;;
20511;SDS011;10414;52.074;5.126;2023-10-08T14:39:15;9.35;;;2.90;;
20511;SDS011;10414;52.074;5.126;2023-10-08T14:41:59;6.35;;;2.78;;
20511;SDS011;10414;52.074;5.126;2023-10-08T14:44:44;7.68;;;2.28;;
20511;SDS011;10414;52.074;5.126;2023-10-08T14:47:13;9.48;;;3.00;;
20511;SDS011;10414;52.074;5.126;2023-10-08T14:49:40;5.93;;;2.40;;
20511;SDS011;10414;52.074;5.126;2023-10-08T14:52:11;9.35;;;3.28;;
20511;SDS011;10414;52.074;5.126;2023-10-08T14:54:38;9.10;;;2.97;;
20511;SDS011;10414;52.074;5.126;2023-10-08T14:57:06;8.23;;;2.70;;
20511;SDS011;10414;52.074;5.126;2023-10-08T14:59:40;6.78;;;2.65;;
20511;SDS011;10414;52.074;5.126;2023-10-08T15:02:07;6.07;;;3.08;;
20511;SDS011;10414;52.074;5.126;2023-10-08T15:04:37;7.68;;;3.10;;
20511;SDS011;10414;52.074;5.126;2023-10-08T15:07:04;7.53;;;3.63;;
20511;SDS011;10414;52.074;5.126;2023-10-08T15:09:34;7.57;;;2.88;;
20511;SDS011;10414;52.074;5.126;2023-10-08T15:12:01;8.13;;;3.15;;
20511;SDS011;10414;52.074;5.126;2023-10-08T15:14:34;5.93;;;3.05;;
20511;SDS011;10414;52.074;5.126;2023-10-08T15:17:03;8.63;;;3.05;;
20511;SDS011;10414;52.074;5.126;2023-10-08T15:19:32;6.73;;;2.60;;
20511;SDS011;10414;52.074;5.126;2023-10-08T15:22:03;7.45;;;2.95;;